Time;durP1;ratioP1;P1;durP2;ratioP2;P2;SDS_P1;SDS_P2;PMS_P1;PMS_P2;Temp;Humidity;BMP_temperature;BMP_pressure;BME280_temperature;BME280_humidity;BME280_pressure;Samples;Min_cycle;Max_cycle;Signal;HPM_P1;HPM_P2
2024/03/02 00:00:39;;;;;;;20.40;13.60;;;7.80;99.90;;;;;;4993133;28;20219;-88
2024/03/02 00:03:09;;;;;;;20.48;13.05;;;7.80;99.90;;;;;;5001744;28;20238;-88
2024/03/02 00:05:35;;;;;;;21.58;12.55;;;7.80;99.90;;;;;;4987146;28;20180;-87
2024/03/02 00:08:04;;;;;;;20.27;12.98;;;7.80;99.90;;;;;;4985842;28;20640;-87
2024/03/02 00:10:41;;;;;;;21.05;13.60;;;7.80;99.90;;;;;;5003225;28;20186;-88
2024/03/02 00:13:08;;;;;;;20.27;13.35;;;7.80;99.90;;;;;;4987971;28;20199;-88
2024/03/02 00:15:54;;;;;;;20.65;13.20;;;7.80;99.90;;;;;;4983950;28;20224;-88
2024/03/02 00:18:34;;;;;;;19.13;12.73;;;7.80;99.90;;;;;;4993783;28;20274;-87
2024/03/02 00:21:02;;;;;;;19.77;13.10;;;7.80;99.90;;;;;;4994280;28;20187;-88
2024/03/02 00:23:30;;;;;;;20.80;13.48;;;7.80;99.90;;;;;;5000243;28;20195;-87
2024/03/02 00:25:57;;;;;;;21.00;12.57;;;7.80;99.90;;;;;;4989299;28;20196;-87
2024/03/02 00:28:25;;;;;;;17.25;11.73;;;7.80;99.90;;;;;;4997388;28;20183;-87
2024/03/02 00:31:12;;;;;;;19.42;13.00;;;7.80;99.90;;;;;;4989837;28;20579;-87
2024/03/02 00:33:45;;;;;;;23.33;13.95;;;7.80;99.90;;;;;;4995202;28;20195;-87
2024/03/02 00:36:12;;;;;;;24.23;12.82;;;7.80;99.90;;;;;;4992252;28;20214;-88
2024/03/02 00:38:47;;;;;;;21.38;13.52;;;7.70;99.90;;;;;;5005294;28;20222;-87
2024/03/02 00:41:33;;;;;;;22.03;13.00;;;7.80;99.90;;;;;;4998325;28;20218;-87
2024/03/02 00:44:07;;;;;;;22.10;13.85;;;7.70;99.90;;;;;;4978843;28;20261;-86
2024/03/02 00:46:34;;;;;;;23.50;14.13;;;7.70;99.90;;;;;;5009432;28;20193;-88
2024/03/02 00:49:03;;;;;;;24.77;13.93;;;7.70;99.90;;;;;;4988627;28;20196;-88
2024/03/02 00:51:39;;;;;;;24.73;12.63;;;7.70;99.90;;;;;;4989680;28;20192;-87
2024/03/02 00:54:08;;;;;;;22.70;13.77;;;7.60;99.90;;;;;;5002568;28;20239;-87
2024/03/02 00:56:35;;;;;;;25.03;13.13;;;7.60;99.90;;;;;;4987067;28;20226;-87
2024/03/02 00:59:00;;;;;;;19.52;12.35;;;7.60;99.90;;;;;;5003533;28;20184;-87
2024/03/02 01:01:27;;;;;;;24.63;13.35;;;7.50;99.90;;;;;;4999335;28;20199;-86
2024/03/02 01:03:53;;;;;;;22.33;12.77;;;7.50;99.90;;;;;;4994244;28;20634;-86
2024/03/02 01:06:19;;;;;;;21.17;13.30;;;7.50;99.90;;;;;;5016171;28;20202;-86
2024/03/02 01:08:46;;;;;;;19.33;13.40;;;7.50;99.90;;;;;;4996915;28;20192;-87
2024/03/02 01:11:12;;;;;;;19.90;13.45;;;7.50;99.90;;;;;;4989841;28;20186;-87
2024/03/02 01:13:38;;;;;;;19.58;13.15;;;7.50;99.90;;;;;;4990415;28;20597;-87
2024/03/02 01:16:04;;;;;;;21.23;12.90;;;7.50;99.90;;;;;;5002616;28;20199;-87
2024/03/02 01:18:30;;;;;;;20.63;13.35;;;7.60;99.90;;;;;;5003712;28;20180;-86
2024/03/02 01:21:03;;;;;;;20.80;13.00;;;7.60;99.90;;;;;;5003370;28;20192;-86
2024/03/02 01:23:29;;;;;;;22.17;13.43;;;7.60;99.90;;;;;;4996502;28;20212;-86
2024/03/02 01:25:55;;;;;;;19.98;13.25;;;7.60;99.90;;;;;;4989040;28;20195;-86
2024/03/02 01:28:21;;;;;;;19.88;13.23;;;7.60;99.90;;;;;;5004277;28;20184;-86
2024/03/02 01:30:49;;;;;;;21.20;13.17;;;7.50;99.90;;;;;;4995817;28;20194;-86
2024/03/02 01:33:16;;;;;;;23.27;12.90;;;7.50;99.90;;;;;;5010807;28;20179;-86
2024/03/02 01:35:41;;;;;;;21.57;13.23;;;7.50;99.90;;;;;;5012250;28;20214;-86
2024/03/02 01:38:07;;;;;;;21.73;12.43;;;7.40;99.90;;;;;;4995878;28;20566;-86
2024/03/02 01:40:38;;;;;;;21.08;13.18;;;7.40;99.90;;;;;;4989142;28;20185;-86
2024/03/02 01:43:07;;;;;;;21.65;13.43;;;7.40;99.90;;;;;;4991597;28;20272;-87
2024/03/02 01:45:35;;;;;;;19.40;13.20;;;7.50;99.90;;;;;;5010223;28;20187;-87
2024/03/02 01:48:02;;;;;;;23.30;12.93;;;7.50;99.90;;;;;;4999209;28;20183;-87
2024/03/02 01:50:30;;;;;;;21.53;12.87;;;7.50;99.90;;;;;;4988731;28;20180;-87
2024/03/02 01:52:56;;;;;;;21.05;12.90;;;7.50;99.90;;;;;;4992324;28;20194;-87
2024/03/02 01:55:22;;;;;;;21.87;12.80;;;7.40;99.90;;;;;;5007495;28;20370;-88
2024/03/02 01:57:50;;;;;;;19.83;13.40;;;7.40;99.90;;;;;;4996743;28;20271;-86
2024/03/02 02:00:17;;;;;;;18.52;11.98;;;7.40;99.90;;;;;;4995532;28;20638;-87
2024/03/02 02:02:49;;;;;;;22.90;13.07;;;7.40;99.90;;;;;;4988875;28;20184;-87
2024/03/02 02:05:15;;;;;;;20.33;13.88;;;7.40;99.90;;;;;;4988466;28;20211;-87
2024/03/02 02:07:42;;;;;;;21.33;12.98;;;7.40;99.90;;;;;;4989798;28;20277;-88
2024/03/02 02:10:09;;;;;;;20.40;13.10;;;7.40;99.90;;;;;;5014407;28;20187;-87
2024/03/02 02:12:36;;;;;;;21.63;13.48;;;7.40;99.90;;;;;;5014278;28;20187;-88
2024/03/02 02:15:02;;;;;;;19.15;13.10;;;7.40;99.90;;;;;;5014573;28;20219;-87
2024/03/02 02:17:28;;;;;;;22.88;13.20;;;7.40;99.90;;;;;;4999129;28;20191;-88
2024/03/02 02:19:54;;;;;;;20.90;13.57;;;7.40;99.90;;;;;;4992202;28;20193;-88
2024/03/02 02:22:21;;;;;;;21.30;12.95;;;7.40;99.90;;;;;;4984072;28;20237;-88
2024/03/02 02:24:47;;;;;;;19.42;12.77;;;7.40;99.90;;;;;;4992036;28;20290;-87
2024/03/02 02:27:15;;;;;;;20.33;12.33;;;7.40;99.90;;;;;;4985216;28;20204;-88
2024/03/02 02:29:41;;;;;;;21.30;12.73;;;7.40;99.90;;;;;;4995182;28;20180;-87
2024/03/02 02:32:08;;;;;;;19.90;12.73;;;7.40;99.90;;;;;;4995122;28;20191;-87
2024/03/02 02:34:33;;;;;;;26.03;14.93;;;7.40;99.90;;;;;;5003097;28;20264;-87
2024/03/02 02:37:00;;;;;;;19.92;12.25;;;7.40;99.90;;;;;;5003353;28;20191;-87
2024/03/02 02:39:26;;;;;;;20.25;13.15;;;7.30;99.90;;;;;;5003616;28;20190;-89
2024/03/02 02:41:51;;;;;;;22.80;13.30;;;7.30;99.90;;;;;;5002282;28;20521;-88
2024/03/02 02:44:17;;;;;;;23.42;13.25;;;7.30;99.90;;;;;;5002268;28;20205;-87
2024/03/02 02:46:43;;;;;;;23.33;13.25;;;7.40;99.90;;;;;;4993226;28;20262;-87
2024/03/02 02:49:08;;;;;;;20.23;14.20;;;7.30;99.90;;;;;;5000114;28;20179;-87
2024/03/02 02:51:34;;;;;;;25.08;13.95;;;7.40;99.90;;;;;;4998028;28;20184;-88
2024/03/02 02:54:00;;;;;;;21.33;14.20;;;7.30;99.90;;;;;;4989731;28;20944;-87
2024/03/02 02:56:26;;;;;;;21.27;13.00;;;7.30;99.90;;;;;;4999895;28;20201;-88
2024/03/02 02:58:52;;;;;;;21.30;13.88;;;7.30;99.90;;;;;;5003736;28;20266;-88
2024/03/02 03:01:18;;;;;;;20.40;13.13;;;7.30;99.90;;;;;;5009979;28;20572;-87
2024/03/02 03:03:44;;;;;;;23.88;13.82;;;7.30;99.90;;;;;;5011265;28;20294;-88
2024/03/02 03:06:10;;;;;;;22.17;14.00;;;7.30;99.90;;;;;;4995383;28;20195;-87
2024/03/02 03:08:36;;;;;;;24.05;15.18;;;7.30;99.90;;;;;;5003057;28;20187;-87
2024/03/02 03:11:03;;;;;;;25.20;16.40;;;7.30;99.90;;;;;;4994674;28;20192;-87
2024/03/02 03:13:35;;;;;;;24.52;15.88;;;7.30;99.90;;;;;;4986542;28;20250;-87
2024/03/02 03:16:00;;;;;;;24.33;14.98;;;7.30;99.90;;;;;;4991606;28;20222;-87
2024/03/02 03:18:26;;;;;;;22.13;14.83;;;7.30;99.90;;;;;;4997290;28;20210;-87
2024/03/02 03:20:52;;;;;;;26.25;15.43;;;7.30;99.90;;;;;;4991530;28;20194;-87
2024/03/02 03:23:20;;;;;;;23.10;15.02;;;7.30;99.90;;;;;;4998541;28;20188;-88
2024/03/02 03:25:46;;;;;;;24.52;15.45;;;7.30;99.90;;;;;;4986304;28;20226;-87
2024/03/02 03:28:12;;;;;;;30.95;17.00;;;7.30;99.90;;;;;;4995469;28;20250;-88
2024/03/02 03:30:38;;;;;;;26.67;16.10;;;7.30;99.90;;;;;;4994267;28;20183;-87
2024/03/02 03:33:21;;;;;;;24.70;15.93;;;7.30;99.90;;;;;;4987570;28;20273;-87
2024/03/02 03:35:48;;;;;;;27.65;16.83;;;7.30;99.90;;;;;;4983780;28;20273;-88
2024/03/02 03:38:14;;;;;;;26.48;17.13;;;7.30;99.90;;;;;;4982806;28;20188;-87
2024/03/02 03:40:39;;;;;;;25.83;17.20;;;7.30;99.90;;;;;;4986072;28;20203;-87
2024/03/02 03:43:06;;;;;;;25.38;16.30;;;7.30;99.90;;;;;;4989856;28;20185;-88
2024/03/02 03:45:32;;;;;;;26.70;16.83;;;7.30;99.90;;;;;;5000186;28;20212;-88
2024/03/02 03:47:58;;;;;;;28.33;17.13;;;7.30;99.90;;;;;;5000956;28;20300;-87
2024/03/02 03:50:24;;;;;;;26.65;17.05;;;7.30;99.90;;;;;;5002017;28;20191;-88
2024/03/02 03:52:52;;;;;;;27.42;16.52;;;7.30;99.90;;;;;;5002373;28;20530;-87
2024/03/02 03:57:49;;;;;;;28.20;16.45;;;7.30;99.90;;;;;;5056590;28;20228;-82
2024/03/02 04:00:15;;;;;;;28.88;16.92;;;7.30;99.90;;;;;;5078868;28;20258;-83
2024/03/02 04:02:41;;;;;;;25.50;16.40;;;7.30;99.90;;;;;;5097073;28;20181;-83
2024/03/02 04:05:10;;;;;;;26.05;16.75;;;7.30;99.90;;;;;;5087690;28;20506;-82
2024/03/02 04:07:40;;;;;;;27.33;16.38;;;7.30;99.90;;;;;;5096667;28;20177;-84
2024/03/02 04:10:08;;;;;;;25.13;15.53;;;7.30;99.90;;;;;;5078731;28;20189;-83
2024/03/02 04:12:35;;;;;;;24.10;15.40;;;7.30;99.90;;;;;;5078263;28;20536;-83
2024/03/02 04:15:01;;;;;;;26.43;15.90;;;7.30;99.90;;;;;;5096875;28;20650;-84
2024/03/02 04:17:27;;;;;;;27.20;16.33;;;7.40;99.90;;;;;;5096685;28;20518;-84
2024/03/02 04:19:53;;;;;;;24.93;16.13;;;7.40;99.90;;;;;;5096797;28;20188;-84
2024/03/02 04:22:19;;;;;;;27.33;16.15;;;7.30;99.90;;;;;;5096634;28;20619;-83
2024/03/02 04:24:44;;;;;;;23.95;15.43;;;7.40;99.90;;;;;;5096520;28;20188;-83
2024/03/02 04:27:10;;;;;;;26.80;15.70;;;7.40;99.90;;;;;;5077373;28;20180;-84
2024/03/02 04:29:36;;;;;;;25.57;16.43;;;7.40;99.90;;;;;;5078273;28;20220;-84
2024/03/02 04:32:02;;;;;;;20.73;13.82;;;7.40;99.90;;;;;;5096744;28;20216;-83
2024/03/02 04:34:27;;;;;;;23.33;14.38;;;7.30;99.90;;;;;;5071904;28;20209;-84
2024/03/02 04:36:53;;;;;;;21.73;13.93;;;7.30;99.90;;;;;;5096288;28;20188;-84
2024/03/02 04:39:19;;;;;;;21.47;13.80;;;7.30;99.90;;;;;;5077849;28;20253;-84
2024/03/02 04:41:45;;;;;;;21.88;13.90;;;7.30;99.90;;;;;;5096002;28;20195;-83
2024/03/02 04:44:11;;;;;;;22.57;14.07;;;7.20;99.90;;;;;;5070117;28;20559;-84
2024/03/02 04:46:37;;;;;;;27.50;14.93;;;7.20;99.90;;;;;;5077994;28;20192;-84
2024/03/02 04:49:03;;;;;;;23.20;14.97;;;7.20;99.90;;;;;;5077634;28;20237;-84
2024/03/02 04:51:28;;;;;;;33.63;16.30;;;7.20;99.90;;;;;;5077885;28;20199;-83
2024/03/02 04:53:54;;;;;;;24.47;15.37;;;7.10;99.90;;;;;;5095919;28;20190;-84
2024/03/02 04:56:39;;;;;;;27.77;16.90;;;7.10;99.90;;;;;;5077358;28;20235;-83
2024/03/02 04:59:06;;;;;;;28.63;16.37;;;7.10;99.90;;;;;;5091106;28;20173;-84
2024/03/02 05:01:33;;;;;;;23.77;15.23;;;7.10;99.90;;;;;;5075561;28;20196;-84
2024/03/02 05:03:58;;;;;;;28.77;16.65;;;7.10;99.90;;;;;;5074319;28;20185;-84
2024/03/02 05:06:24;;;;;;;27.80;16.93;;;7.10;99.90;;;;;;5091395;28;20677;-83
2024/03/02 05:08:50;;;;;;;25.13;16.03;;;7.00;99.90;;;;;;5095662;28;20195;-84
2024/03/02 05:14:10;;;;;;;25.77;16.70;;;7.00;99.90;;;;;;5040694;28;20731;-83
2024/03/02 05:16:38;;;;;;;29.65;17.02;;;7.00;99.90;;;;;;5077323;28;20191;-83
2024/03/02 05:19:06;;;;;;;26.70;16.50;;;7.00;99.90;;;;;;5077150;28;20188;-83
2024/03/02 05:21:33;;;;;;;25.30;16.20;;;7.00;99.90;;;;;;5095511;28;20184;-83
2024/03/02 05:23:59;;;;;;;26.67;16.47;;;7.00;99.90;;;;;;5077504;28;20187;-83
2024/03/02 05:26:25;;;;;;;26.57;16.03;;;6.90;99.90;;;;;;5095097;28;20185;-83
2024/03/02 05:28:51;;;;;;;23.08;16.02;;;6.90;99.90;;;;;;5095388;28;20211;-83
2024/03/02 05:31:17;;;;;;;31.93;16.27;;;6.90;99.90;;;;;;5095387;28;20192;-83
2024/03/02 05:33:43;;;;;;;27.60;16.70;;;6.90;99.90;;;;;;5094321;28;20188;-83
2024/03/02 05:36:09;;;;;;;30.83;17.33;;;6.80;99.90;;;;;;5089630;28;20193;-83
2024/03/02 05:38:35;;;;;;;26.93;17.13;;;6.80;99.90;;;;;;5095050;28;20183;-85
2024/03/02 05:41:01;;;;;;;30.08;16.58;;;6.80;99.90;;;;;;5095124;28;20516;-82
2024/03/02 05:43:27;;;;;;;24.35;16.05;;;6.80;99.90;;;;;;5094999;28;20176;-86
2024/03/02 05:45:53;;;;;;;27.07;15.60;;;6.80;99.90;;;;;;5094820;28;20615;-83
2024/03/02 05:48:18;;;;;;;27.33;16.83;;;6.70;99.90;;;;;;5076347;28;20508;-83
2024/03/02 05:50:44;;;;;;;26.67;15.97;;;6.70;99.90;;;;;;5076305;28;20210;-83
2024/03/02 05:53:10;;;;;;;27.60;16.97;;;6.80;99.90;;;;;;5094998;28;20285;-83
2024/03/02 05:55:36;;;;;;;26.13;16.40;;;6.80;99.90;;;;;;5076343;28;20220;-84
2024/03/02 06:00:46;;;;;;;26.83;15.80;;;6.60;99.90;;;;;;5094705;28;20237;-83
2024/03/02 06:03:12;;;;;;;25.17;15.97;;;6.70;99.90;;;;;;5076493;28;20188;-83
2024/03/02 06:05:37;;;;;;;26.13;16.63;;;6.60;99.90;;;;;;5087958;28;20669;-84
2024/03/02 06:08:03;;;;;;;25.97;15.90;;;6.60;99.90;;;;;;5076273;28;20238;-83
2024/03/02 06:10:29;;;;;;;26.47;16.53;;;6.60;99.90;;;;;;5072589;28;20267;-83
2024/03/02 06:12:55;;;;;;;25.03;15.43;;;6.60;99.90;;;;;;5075033;28;20560;-82
2024/03/02 06:15:21;;;;;;;25.13;15.97;;;6.50;99.90;;;;;;5094054;28;20303;-83
2024/03/02 06:17:46;;;;;;;24.70;15.90;;;6.50;99.90;;;;;;5072780;28;20185;-83
2024/03/02 06:20:12;;;;;;;24.83;16.77;;;6.50;99.90;;;;;;5089551;28;20188;-83
2024/03/02 06:22:38;;;;;;;25.37;15.83;;;6.50;99.90;;;;;;5093763;28;20181;-84
2024/03/02 06:25:04;;;;;;;29.57;17.20;;;6.50;99.90;;;;;;5094231;28;20245;-82
2024/03/02 06:27:30;;;;;;;25.90;16.90;;;6.50;99.90;;;;;;5093543;28;20215;-83
2024/03/02 06:29:56;;;;;;;27.50;16.73;;;6.50;99.90;;;;;;5076107;28;20600;-83
2024/03/02 06:32:23;;;;;;;27.00;16.50;;;6.60;99.90;;;;;;5085944;28;20673;-85
2024/03/02 06:34:48;;;;;;;25.20;16.33;;;6.60;99.90;;;;;;5069657;28;20675;-84
2024/03/02 06:37:15;;;;;;;27.87;17.73;;;6.60;99.90;;;;;;5079585;28;20185;-83
2024/03/02 06:39:41;;;;;;;25.70;17.43;;;6.60;99.90;;;;;;5084982;28;20612;-84
2024/03/02 06:42:07;;;;;;;26.57;16.87;;;6.60;99.90;;;;;;5087934;28;20191;-84
2024/03/02 06:44:33;;;;;;;26.97;17.83;;;6.70;99.90;;;;;;5064689;28;20527;-85
2024/03/02 06:46:59;;;;;;;27.43;16.70;;;6.70;99.90;;;;;;5087651;28;20203;-85
2024/03/02 06:49:25;;;;;;;30.07;18.40;;;6.80;99.90;;;;;;5068787;28;20603;-84
2024/03/02 06:51:51;;;;;;;25.43;16.30;;;6.80;99.90;;;;;;5084889;28;20261;-84
2024/03/02 06:54:16;;;;;;;27.63;17.93;;;6.80;99.90;;;;;;5083636;28;20215;-86
2024/03/02 06:56:42;;;;;;;28.67;17.47;;;6.80;99.90;;;;;;5064306;28;20249;-84
2024/03/02 06:59:08;;;;;;;30.37;18.47;;;6.80;99.90;;;;;;5060953;28;20578;-84
2024/03/02 07:01:34;;;;;;;26.80;17.40;;;6.90;99.90;;;;;;5067101;28;20192;-83
2024/03/02 07:04:00;;;;;;;23.93;16.63;;;6.90;99.90;;;;;;5083608;28;20188;-84
2024/03/02 07:06:25;;;;;;;22.97;15.23;;;6.90;99.90;;;;;;5067603;28;20392;-83
2024/03/02 07:08:51;;;;;;;24.50;16.47;;;7.00;99.90;;;;;;5078888;28;20185;-84
2024/03/02 07:11:17;;;;;;;23.77;16.43;;;7.00;99.90;;;;;;5075232;28;20586;-84
2024/03/02 07:13:43;;;;;;;26.87;15.97;;;7.00;99.90;;;;;;5074130;28;20184;-83
2024/03/02 07:18:41;;;;;;;24.90;16.43;;;7.10;99.90;;;;;;5085497;28;20188;-84
2024/03/02 07:21:07;;;;;;;24.87;15.53;;;7.10;99.90;;;;;;5092164;28;20194;-84
2024/03/02 07:23:34;;;;;;;23.13;15.60;;;7.00;99.90;;;;;;5068112;28;20188;-85
2024/03/02 07:26:01;;;;;;;25.90;15.70;;;7.10;99.90;;;;;;5077402;28;20180;-85
2024/03/02 07:28:27;;;;;;;23.07;15.60;;;7.10;99.90;;;;;;5059682;28;20219;-85
2024/03/02 07:31:00;;;;;;;22.77;15.27;;;7.10;99.90;;;;;;5080540;28;20189;-84
2024/03/02 07:33:26;;;;;;;23.47;15.30;;;7.10;99.90;;;;;;5078502;28;20189;-85
2024/03/02 07:35:53;;;;;;;23.80;15.60;;;7.10;99.90;;;;;;5074413;28;20216;-84
2024/03/02 07:38:19;;;;;;;23.37;15.23;;;7.10;99.90;;;;;;5075333;28;20181;-84
2024/03/02 07:40:45;;;;;;;23.47;16.00;;;7.20;99.90;;;;;;5071924;28;20649;-83
2024/03/02 07:43:11;;;;;;;25.27;15.83;;;7.20;99.90;;;;;;5057696;28;20209;-84
2024/03/02 07:45:37;;;;;;;23.23;15.57;;;7.20;99.90;;;;;;5056541;28;20183;-84
2024/03/02 07:48:05;;;;;;;21.77;14.73;;;7.20;99.90;;;;;;5073106;28;20835;-84
2024/03/02 07:50:34;;;;;;;26.70;15.90;;;7.20;99.90;;;;;;5072115;28;20523;-84
2024/03/02 07:52:59;;;;;;;22.37;15.37;;;7.20;99.90;;;;;;5055539;28;20201;-84
2024/03/02 07:55:25;;;;;;;23.63;14.85;;;7.20;99.90;;;;;;5055081;28;20541;-84
2024/03/02 07:57:51;;;;;;;24.30;15.77;;;7.30;99.90;;;;;;5073029;28;20239;-84
2024/03/02 08:00:17;;;;;;;27.27;16.13;;;7.30;99.90;;;;;;5075322;28;20619;-84
2024/03/02 08:02:43;;;;;;;23.77;15.90;;;7.40;99.90;;;;;;5091248;28;20208;-83
2024/03/02 08:05:09;;;;;;;25.90;16.33;;;7.40;99.90;;;;;;5075239;28;20212;-88
2024/03/02 08:07:35;;;;;;;26.95;17.02;;;7.50;99.90;;;;;;5091625;28;20185;-86
2024/03/02 08:10:01;;;;;;;21.77;15.20;;;7.50;99.90;;;;;;5074684;28;20645;-84
2024/03/02 08:12:26;;;;;;;25.13;16.20;;;7.60;99.90;;;;;;5086839;28;20650;-87
2024/03/02 08:14:52;;;;;;;27.20;16.48;;;7.70;99.90;;;;;;5066612;28;20714;-87
2024/03/02 08:17:18;;;;;;;25.90;16.40;;;7.70;99.90;;;;;;5066504;28;20182;-85
2024/03/02 08:19:44;;;;;;;22.60;15.80;;;7.80;99.90;;;;;;5065342;28;20200;-85
2024/03/02 08:22:10;;;;;;;25.08;16.33;;;7.80;99.90;;;;;;5091502;28;20180;-84
2024/03/02 08:24:36;;;;;;;27.43;16.30;;;7.90;99.90;;;;;;5083899;28;20238;-85
2024/03/02 08:27:02;;;;;;;27.30;16.80;;;8.00;99.90;;;;;;5090126;28;20192;-85
2024/03/02 08:29:28;;;;;;;25.73;16.80;;;8.00;99.90;;;;;;5066164;28;20624;-85
2024/03/02 08:31:54;;;;;;;26.25;16.70;;;8.10;99.90;;;;;;5064987;28;20242;-86
2024/03/02 08:34:20;;;;;;;24.88;16.08;;;8.30;99.90;;;;;;5069705;28;20659;-87
2024/03/02 08:36:46;;;;;;;25.45;17.52;;;8.40;99.90;;;;;;5072959;28;20239;-85
2024/03/02 08:39:15;;;;;;;26.48;17.27;;;8.50;99.90;;;;;;5069933;28;20600;-86
2024/03/02 08:41:43;;;;;;;24.27;16.80;;;8.60;99.90;;;;;;5085874;28;20263;-84
2024/03/02 08:44:10;;;;;;;23.25;17.20;;;8.80;99.90;;;;;;5077058;28;20180;-86
2024/03/02 08:46:36;;;;;;;25.05;16.30;;;8.90;99.90;;;;;;5096163;28;20696;-86
2024/03/02 08:49:02;;;;;;;26.08;16.70;;;8.90;99.90;;;;;;5096292;28;20176;-85
2024/03/02 08:51:29;;;;;;;25.98;16.02;;;9.10;99.90;;;;;;5078302;28;20246;-86
2024/03/02 08:53:54;;;;;;;24.95;15.65;;;9.20;99.90;;;;;;5077686;28;20212;-86
2024/03/02 08:56:21;;;;;;;24.63;16.38;;;9.30;99.90;;;;;;5073919;28;20272;-86
2024/03/02 08:58:47;;;;;;;26.60;16.77;;;9.50;99.90;;;;;;5075753;28;20223;-86
2024/03/02 09:01:13;;;;;;;26.98;16.67;;;9.60;99.90;;;;;;5074684;28;20221;-88
2024/03/02 09:03:39;;;;;;;24.65;16.55;;;9.70;99.90;;;;;;5074704;28;20196;-85
2024/03/02 09:06:04;;;;;;;23.95;15.02;;;9.80;99.90;;;;;;5071019;28;20303;-86
2024/03/02 09:08:30;;;;;;;22.08;15.27;;;9.80;99.90;;;;;;5063617;28;20190;-86
2024/03/02 09:10:57;;;;;;;21.63;14.52;;;9.90;99.90;;;;;;5075890;28;20185;-86
2024/03/02 09:13:23;;;;;;;19.95;13.00;;;9.90;99.90;;;;;;5074575;28;20181;-87
2024/03/02 09:15:48;;;;;;;20.55;14.18;;;9.90;99.90;;;;;;5074158;28;20233;-85
2024/03/02 09:18:15;;;;;;;20.40;13.75;;;10.00;99.90;;;;;;5067330;28;20190;-87
2024/03/02 09:20:40;;;;;;;21.40;14.57;;;10.10;99.90;;;;;;5074618;28;20551;-87
2024/03/02 09:23:06;;;;;;;23.20;14.50;;;10.10;99.90;;;;;;5073981;28;20188;-88
2024/03/02 09:25:32;;;;;;;20.15;13.82;;;10.20;99.90;;;;;;5073887;28;20203;-88
2024/03/02 09:27:58;;;;;;;20.50;14.20;;;10.20;99.90;;;;;;5072395;28;20189;-86
2024/03/02 09:30:23;;;;;;;19.55;13.30;;;10.30;99.90;;;;;;5064931;28;20189;-87
2024/03/02 09:32:49;;;;;;;20.45;13.43;;;10.30;99.90;;;;;;5058749;28;20179;-90
2024/03/02 09:35:15;;;;;;;19.65;13.75;;;10.40;99.90;;;;;;5073664;28;20205;-86
2024/03/02 09:37:41;;;;;;;19.42;13.95;;;10.50;99.90;;;;;;5064745;28;20188;-87
2024/03/02 09:40:07;;;;;;;20.77;13.40;;;10.50;99.90;;;;;;5073681;28;20189;-87
2024/03/02 09:42:33;;;;;;;19.27;13.60;;;10.60;99.90;;;;;;5073962;28;20530;-88
2024/03/02 09:44:59;;;;;;;20.70;13.90;;;10.60;99.90;;;;;;5074404;28;20622;-87
2024/03/02 09:47:24;;;;;;;18.30;13.30;;;10.70;99.90;;;;;;5074150;28;20182;-86
2024/03/02 09:49:50;;;;;;;20.17;13.50;;;10.70;99.90;;;;;;5073908;28;20603;-87
2024/03/02 09:52:16;;;;;;;20.58;12.23;;;10.80;99.90;;;;;;5073289;28;20679;-90
2024/03/02 09:54:42;;;;;;;19.23;12.90;;;10.80;99.90;;;;;;5071514;28;20217;-90
2024/03/02 09:57:08;;;;;;;21.08;13.35;;;10.90;99.90;;;;;;5067974;28;20233;-89
2024/03/02 09:59:34;;;;;;;19.48;13.02;;;10.90;99.90;;;;;;5066660;28;20181;-87
2024/03/02 10:02:02;;;;;;;20.77;13.95;;;11.00;99.90;;;;;;5073966;28;20222;-89
2024/03/02 10:04:29;;;;;;;20.85;13.75;;;11.00;99.90;;;;;;5074049;28;20220;-87
2024/03/02 10:07:15;;;;;;;18.17;12.88;;;11.00;99.90;;;;;;5060125;28;20221;-91
2024/03/02 10:09:48;;;;;;;22.05;14.70;;;11.00;99.90;;;;;;5057943;28;20186;-89
2024/03/02 10:12:17;;;;;;;22.23;15.70;;;11.00;99.90;;;;;;5067048;28;20197;-89
2024/03/02 10:14:44;;;;;;;20.75;14.77;;;11.10;99.90;;;;;;5059581;28;20218;-90
2024/03/02 10:17:11;;;;;;;22.17;13.85;;;11.10;99.90;;;;;;5048671;28;20208;-90
2024/03/02 10:19:38;;;;;;;22.33;14.32;;;11.10;99.90;;;;;;5049618;28;20247;-91
2024/03/02 10:22:08;;;;;;;22.83;15.30;;;11.20;99.90;;;;;;5068198;28;20183;-88
2024/03/02 10:24:44;;;;;;;19.75;13.75;;;11.20;99.90;;;;;;5064375;28;20193;-87
2024/03/02 10:27:27;;;;;;;21.83;13.90;;;11.20;99.90;;;;;;5062806;28;20178;-90
2024/03/02 10:29:53;;;;;;;20.95;13.45;;;11.30;99.90;;;;;;5053085;28;20212;-91
2024/03/02 10:32:22;;;;;;;16.67;12.43;;;11.30;99.90;;;;;;5056867;28;20185;-88
2024/03/02 10:34:50;;;;;;;17.70;12.05;;;11.40;99.90;;;;;;5060694;28;20209;-89
2024/03/02 10:37:17;;;;;;;16.92;10.98;;;11.40;99.90;;;;;;5063622;28;20185;-91
2024/03/02 10:39:43;;;;;;;17.02;11.95;;;11.50;99.90;;;;;;5060250;28;20541;-91
2024/03/02 10:42:14;;;;;;;17.08;11.35;;;11.50;99.90;;;;;;5047202;28;20201;-89
2024/03/02 10:44:40;;;;;;;18.90;12.18;;;11.60;99.90;;;;;;5054340;28;20186;-88
2024/03/02 10:47:08;;;;;;;20.65;13.38;;;11.60;99.90;;;;;;5069307;28;20204;-85
2024/03/02 10:49:34;;;;;;;18.95;13.00;;;11.70;99.90;;;;;;5063785;28;20181;-87
2024/03/02 10:52:00;;;;;;;19.60;13.90;;;11.80;99.90;;;;;;5066605;28;20203;-90
2024/03/02 10:54:28;;;;;;;20.00;13.07;;;11.90;99.90;;;;;;5064722;28;20213;-88
2024/03/02 10:56:59;;;;;;;18.42;13.05;;;11.90;99.90;;;;;;5054993;28;20217;-90
2024/03/02 10:59:34;;;;;;;20.42;13.68;;;12.00;99.90;;;;;;5060499;28;20181;-90
2024/03/02 11:02:12;;;;;;;21.00;14.60;;;12.00;99.90;;;;;;5064740;28;20212;-91
2024/03/02 11:04:40;;;;;;;18.08;12.32;;;12.20;99.90;;;;;;5062650;28;20280;-89
2024/03/02 11:07:11;;;;;;;21.73;13.13;;;12.20;99.90;;;;;;5062717;28;20511;-91
2024/03/02 11:09:54;;;;;;;12.98;9.18;;;12.40;99.90;;;;;;5053824;28;20622;-91
2024/03/02 11:12:31;;;;;;;9.63;6.72;;;12.60;99.90;;;;;;5060928;28;20180;-89
2024/03/02 11:15:00;;;;;;;10.38;6.50;;;12.80;99.90;;;;;;5061499;28;20277;-88
2024/03/02 11:17:27;;;;;;;11.50;6.32;;;13.10;99.90;;;;;;5053255;28;20195;-90
2024/03/02 11:19:52;;;;;;;9.05;6.18;;;13.30;99.90;;;;;;5049002;28;20181;-90
2024/03/02 11:22:21;;;;;;;9.77;5.72;;;13.40;99.90;;;;;;5055913;28;20180;-91
2024/03/02 11:24:51;;;;;;;7.75;5.05;;;13.30;99.90;;;;;;5065181;28;20192;-90
2024/03/02 11:27:46;;;;;;;9.40;5.40;;;13.30;99.90;;;;;;5082820;28;20173;-90
2024/03/02 11:30:33;;;;;;;5.00;3.53;;;13.40;99.90;;;;;;5056641;28;20185;-93
2024/03/02 11:33:06;;;;;;;6.82;4.05;;;13.30;99.90;;;;;;5049884;28;20230;-90
2024/03/02 11:35:33;;;;;;;6.85;3.30;;;13.20;99.90;;;;;;5075811;28;20238;-90
2024/03/02 11:38:03;;;;;;;6.00;3.08;;;13.10;99.90;;;;;;5051973;28;20524;-91
2024/03/02 11:40:29;;;;;;;5.88;3.10;;;13.20;99.90;;;;;;5045783;28;20186;-89
2024/03/02 11:42:56;;;;;;;5.93;3.22;;;13.30;99.90;;;;;;5048579;28;20180;-90
2024/03/02 11:45:26;;;;;;;5.25;3.30;;;13.10;99.90;;;;;;5048479;28;20192;-90
2024/03/02 11:47:55;;;;;;;4.15;3.28;;;13.10;99.90;;;;;;5082113;28;20173;-90
2024/03/02 11:50:30;;;;;;;5.93;3.75;;;13.00;99.90;;;;;;5073207;28;20627;-84
2024/03/02 11:52:58;;;;;;;4.65;3.10;;;13.00;99.90;;;;;;5078420;28;20180;-86
2024/03/02 11:55:25;;;;;;;5.05;3.25;;;13.00;99.90;;;;;;5075450;28;20268;-87
2024/03/02 11:57:53;;;;;;;7.15;3.80;;;13.00;99.90;;;;;;5047446;28;20236;-87
2024/03/02 12:00:19;;;;;;;3.85;3.10;;;13.00;99.90;;;;;;5073448;28;20182;-87
2024/03/02 12:03:01;;;;;;;4.97;3.47;;;13.00;99.90;;;;;;5068880;28;20316;-86
2024/03/02 12:05:28;;;;;;;4.97;3.47;;;13.00;99.90;;;;;;5059865;28;20727;-85
2024/03/02 12:07:57;;;;;;;6.70;3.55;;;13.00;99.90;;;;;;5056207;28;20189;-87
2024/03/02 12:10:23;;;;;;;6.45;3.35;;;13.10;99.90;;;;;;5071763;28;20201;-89
2024/03/02 12:12:56;;;;;;;4.95;3.30;;;13.10;99.90;;;;;;5064740;28;20285;-87
2024/03/02 12:15:27;;;;;;;4.80;3.58;;;13.10;99.90;;;;;;5074815;28;20295;-85
2024/03/02 12:17:57;;;;;;;7.15;4.38;;;13.10;99.90;;;;;;5053020;28;20219;-85
2024/03/02 12:20:23;;;;;;;5.93;3.80;;;13.10;99.90;;;;;;5067988;28;20280;-86
2024/03/02 12:22:54;;;;;;;6.82;4.07;;;13.20;99.90;;;;;;5075299;28;20185;-87
2024/03/02 12:25:21;;;;;;;5.72;3.70;;;13.20;99.90;;;;;;5068852;28;20182;-86
2024/03/02 12:27:52;;;;;;;6.35;4.05;;;13.20;99.90;;;;;;5065344;28;20178;-86
2024/03/02 12:30:18;;;;;;;6.30;4.18;;;13.20;99.90;;;;;;5055120;28;20182;-88
2024/03/02 12:32:46;;;;;;;5.80;3.97;;;13.30;99.90;;;;;;5058816;28;20174;-88
2024/03/02 12:35:16;;;;;;;6.30;4.10;;;13.30;99.90;;;;;;5058404;28;20213;-87
2024/03/02 12:37:46;;;;;;;6.40;4.03;;;13.30;99.90;;;;;;5063246;28;20185;-85
2024/03/02 12:40:13;;;;;;;5.85;4.00;;;13.40;99.90;;;;;;5070291;28;20191;-87
2024/03/02 12:42:41;;;;;;;5.28;3.97;;;13.40;99.90;;;;;;5050565;28;20577;-85
2024/03/02 12:45:08;;;;;;;6.43;4.40;;;13.40;99.90;;;;;;5075273;28;20189;-86
2024/03/02 12:47:34;;;;;;;7.25;4.25;;;13.50;99.90;;;;;;5075175;28;20212;-86